sensor_id;sensor_type;location;lat;lon;timestamp;P1;durP1;ratioP1;P2;durP2;ratioP2
4597;SDS011;2311;48.646;8.906;2022-07-29T00:04:30;10.40;;;6.67;;
4597;SDS011;2311;48.646;8.906;2022-07-29T00:09:31;10.23;;;6.90;;
4597;SDS011;2311;48.646;8.906;2022-07-29T00:14:31;9.50;;;6.73;;
4597;SDS011;2311;48.646;8.906;2022-07-29T00:19:32;11.17;;;7.20;;
4597;SDS011;2311;48.646;8.906;2022-07-29T00:24:34;14.50;;;7.43;;
4597;SDS011;2311;48.646;8.906;2022-07-29T00:29:34;12.27;;;7.00;;
4597;SDS011;2311;48.646;8.906;2022-07-29T00:34:35;11.73;;;8.00;;
4597;SDS011;2311;48.646;8.906;2022-07-29T00:39:53;11.97;;;8.30;;
4597;SDS011;2311;48.646;8.906;2022-07-29T00:44:54;10.93;;;8.00;;
4597;SDS011;2311;48.646;8.906;2022-07-29T00:49:54;12.53;;;7.90;;
4597;SDS011;2311;48.646;8.906;2022-07-29T00:54:55;10.10;;;7.63;;
4597;SDS011;2311;48.646;8.906;2022-07-29T00:59:56;12.10;;;7.77;;
4597;SDS011;2311;48.646;8.906;2022-07-29T01:04:56;12.07;;;8.83;;
4597;SDS011;2311;48.646;8.906;2022-07-29T01:09:57;12.40;;;8.90;;
4597;SDS011;2311;48.646;8.906;2022-07-29T01:14:58;15.20;;;8.67;;
4597;SDS011;2311;48.646;8.906;2022-07-29T01:20:03;12.00;;;7.87;;
4597;SDS011;2311;48.646;8.906;2022-07-29T01:25:17;12.60;;;8.43;;
4597;SDS011;2311;48.646;8.906;2022-07-29T01:30:26;13.40;;;8.83;;
4597;SDS011;2311;48.646;8.906;2022-07-29T01:35:35;13.47;;;8.57;;
4597;SDS011;2311;48.646;8.906;2022-07-29T01:40:45;14.03;;;9.07;;
4597;SDS011;2311;48.646;8.906;2022-07-29T01:45:49;11.83;;;8.83;;
4597;SDS011;2311;48.646;8.906;2022-07-29T01:51:14;13.43;;;8.07;;
4597;SDS011;2311;48.646;8.906;2022-07-29T01:56:20;12.23;;;8.13;;
4597;SDS011;2311;48.646;8.906;2022-07-29T02:01:23;14.63;;;8.10;;
4597;SDS011;2311;48.646;8.906;2022-07-29T02:06:25;12.37;;;7.93;;
4597;SDS011;2311;48.646;8.906;2022-07-29T02:11:25;11.77;;;8.03;;
4597;SDS011;2311;48.646;8.906;2022-07-29T02:16:26;13.03;;;7.80;;
4597;SDS011;2311;48.646;8.906;2022-07-29T02:21:29;12.40;;;7.87;;
4597;SDS011;2311;48.646;8.906;2022-07-29T02:26:30;13.90;;;8.43;;
4597;SDS011;2311;48.646;8.906;2022-07-29T02:31:32;13.40;;;8.77;;
4597;SDS011;2311;48.646;8.906;2022-07-29T02:36:33;15.03;;;9.80;;
4597;SDS011;2311;48.646;8.906;2022-07-29T02:41:47;12.43;;;8.37;;
4597;SDS011;2311;48.646;8.906;2022-07-29T02:46:49;13.87;;;10.03;;
4597;SDS011;2311;48.646;8.906;2022-07-29T02:51:59;14.50;;;9.40;;
4597;SDS011;2311;48.646;8.906;2022-07-29T02:57:04;15.00;;;10.70;;
4597;SDS011;2311;48.646;8.906;2022-07-29T03:02:08;12.93;;;9.57;;
4597;SDS011;2311;48.646;8.906;2022-07-29T03:07:10;13.83;;;8.93;;
4597;SDS011;2311;48.646;8.906;2022-07-29T03:12:11;13.40;;;9.20;;
4597;SDS011;2311;48.646;8.906;2022-07-29T03:17:12;14.80;;;9.40;;
4597;SDS011;2311;48.646;8.906;2022-07-29T03:22:13;12.57;;;8.03;;
4597;SDS011;2311;48.646;8.906;2022-07-29T03:27:14;12.23;;;7.70;;
4597;SDS011;2311;48.646;8.906;2022-07-29T03:32:14;12.27;;;8.17;;
4597;SDS011;2311;48.646;8.906;2022-07-29T03:37:14;10.37;;;6.80;;
4597;SDS011;2311;48.646;8.906;2022-07-29T03:42:15;9.07;;;6.73;;
4597;SDS011;2311;48.646;8.906;2022-07-29T03:47:17;9.60;;;6.90;;
4597;SDS011;2311;48.646;8.906;2022-07-29T03:52:17;10.00;;;5.80;;
4597;SDS011;2311;48.646;8.906;2022-07-29T03:57:18;9.93;;;5.33;;
4597;SDS011;2311;48.646;8.906;2022-07-29T04:02:20;7.60;;;5.20;;
4597;SDS011;2311;48.646;8.906;2022-07-29T04:07:21;6.53;;;4.63;;
4597;SDS011;2311;48.646;8.906;2022-07-29T04:12:22;7.93;;;4.30;;
4597;SDS011;2311;48.646;8.906;2022-07-29T04:17:22;7.00;;;5.40;;
4597;SDS011;2311;48.646;8.906;2022-07-29T04:22:22;6.00;;;4.70;;
4597;SDS011;2311;48.646;8.906;2022-07-29T04:27:23;6.33;;;4.80;;
4597;SDS011;2311;48.646;8.906;2022-07-29T04:32:24;9.27;;;5.47;;
4597;SDS011;2311;48.646;8.906;2022-07-29T04:37:25;6.67;;;5.27;;
4597;SDS011;2311;48.646;8.906;2022-07-29T04:42:25;8.67;;;5.70;;
4597;SDS011;2311;48.646;8.906;2022-07-29T04:47:26;7.90;;;5.87;;
4597;SDS011;2311;48.646;8.906;2022-07-29T04:52:26;7.57;;;5.97;;
4597;SDS011;2311;48.646;8.906;2022-07-29T04:57:27;8.30;;;6.20;;
4597;SDS011;2311;48.646;8.906;2022-07-29T05:02:27;10.13;;;7.10;;
4597;SDS011;2311;48.646;8.906;2022-07-29T05:07:27;12.43;;;7.87;;
4597;SDS011;2311;48.646;8.906;2022-07-29T05:12:28;10.40;;;7.67;;
4597;SDS011;2311;48.646;8.906;2022-07-29T05:17:28;15.37;;;7.50;;
4597;SDS011;2311;48.646;8.906;2022-07-29T05:22:29;13.63;;;8.10;;
4597;SDS011;2311;48.646;8.906;2022-07-29T05:27:29;9.57;;;7.00;;
4597;SDS011;2311;48.646;8.906;2022-07-29T05:32:29;10.50;;;7.20;;
4597;SDS011;2311;48.646;8.906;2022-07-29T05:37:30;11.47;;;7.13;;
4597;SDS011;2311;48.646;8.906;2022-07-29T05:42:30;9.40;;;6.50;;
4597;SDS011;2311;48.646;8.906;2022-07-29T05:47:31;10.63;;;6.33;;
4597;SDS011;2311;48.646;8.906;2022-07-29T05:52:31;11.87;;;7.20;;
4597;SDS011;2311;48.646;8.906;2022-07-29T05:57:32;10.97;;;7.70;;
4597;SDS011;2311;48.646;8.906;2022-07-29T06:02:32;13.50;;;7.73;;
4597;SDS011;2311;48.646;8.906;2022-07-29T06:07:33;10.40;;;6.90;;
4597;SDS011;2311;48.646;8.906;2022-07-29T06:12:34;11.63;;;7.33;;
4597;SDS011;2311;48.646;8.906;2022-07-29T06:17:34;12.70;;;7.17;;
4597;SDS011;2311;48.646;8.906;2022-07-29T06:22:34;10.80;;;6.80;;
4597;SDS011;2311;48.646;8.906;2022-07-29T06:27:35;11.50;;;7.40;;
4597;SDS011;2311;48.646;8.906;2022-07-29T06:32:35;10.90;;;8.07;;
4597;SDS011;2311;48.646;8.906;2022-07-29T06:37:36;11.43;;;7.50;;
4597;SDS011;2311;48.646;8.906;2022-07-29T06:42:36;10.00;;;7.17;;
4597;SDS011;2311;48.646;8.906;2022-07-29T06:47:37;12.10;;;8.20;;
4597;SDS011;2311;48.646;8.906;2022-07-29T06:52:38;10.93;;;8.10;;
4597;SDS011;2311;48.646;8.906;2022-07-29T06:57:38;15.13;;;7.57;;
4597;SDS011;2311;48.646;8.906;2022-07-29T07:02:39;12.63;;;8.00;;
4597;SDS011;2311;48.646;8.906;2022-07-29T07:07:39;20.07;;;8.40;;
4597;SDS011;2311;48.646;8.906;2022-07-29T07:12:40;12.37;;;7.50;;
4597;SDS011;2311;48.646;8.906;2022-07-29T07:17:40;14.20;;;8.67;;
4597;SDS011;2311;48.646;8.906;2022-07-29T07:22:40;11.23;;;7.70;;
4597;SDS011;2311;48.646;8.906;2022-07-29T07:27:41;12.60;;;8.13;;
4597;SDS011;2311;48.646;8.906;2022-07-29T07:32:42;13.33;;;8.40;;
4597;SDS011;2311;48.646;8.906;2022-07-29T07:37:42;15.27;;;8.80;;
4597;SDS011;2311;48.646;8.906;2022-07-29T07:42:43;13.70;;;7.63;;
4597;SDS011;2311;48.646;8.906;2022-07-29T07:47:43;10.73;;;7.50;;
4597;SDS011;2311;48.646;8.906;2022-07-29T07:52:48;10.83;;;7.23;;
4597;SDS011;2311;48.646;8.906;2022-07-29T07:57:50;13.30;;;7.33;;
4597;SDS011;2311;48.646;8.906;2022-07-29T08:02:50;11.50;;;7.60;;
4597;SDS011;2311;48.646;8.906;2022-07-29T08:07:51;9.37;;;7.00;;
4597;SDS011;2311;48.646;8.906;2022-07-29T08:12:51;10.10;;;7.27;;
4597;SDS011;2311;48.646;8.906;2022-07-29T08:17:51;10.03;;;6.80;;
4597;SDS011;2311;48.646;8.906;2022-07-29T08:22:52;11.53;;;6.87;;
4597;SDS011;2311;48.646;8.906;2022-07-29T08:27:53;9.10;;;6.50;;
4597;SDS011;2311;48.646;8.906;2022-07-29T08:32:53;12.47;;;6.40;;
4597;SDS011;2311;48.646;8.906;2022-07-29T08:37:54;10.83;;;6.30;;
4597;SDS011;2311;48.646;8.906;2022-07-29T08:42:54;8.33;;;6.27;;
4597;SDS011;2311;48.646;8.906;2022-07-29T08:47:55;10.33;;;6.70;;
4597;SDS011;2311;48.646;8.906;2022-07-29T08:52:55;11.07;;;6.30;;
4597;SDS011;2311;48.646;8.906;2022-07-29T08:57:56;8.93;;;6.37;;
4597;SDS011;2311;48.646;8.906;2022-07-29T09:02:57;13.73;;;6.90;;
4597;SDS011;2311;48.646;8.906;2022-07-29T09:07:58;10.03;;;6.20;;
4597;SDS011;2311;48.646;8.906;2022-07-29T09:12:59;9.37;;;5.80;;
4597;SDS011;2311;48.646;8.906;2022-07-29T09:18:00;9.50;;;5.67;;
4597;SDS011;2311;48.646;8.906;2022-07-29T09:23:07;10.47;;;6.17;;
4597;SDS011;2311;48.646;8.906;2022-07-29T09:28:09;8.40;;;6.47;;
4597;SDS011;2311;48.646;8.906;2022-07-29T09:33:11;9.30;;;6.27;;
4597;SDS011;2311;48.646;8.906;2022-07-29T09:38:12;13.53;;;6.90;;
4597;SDS011;2311;48.646;8.906;2022-07-29T09:43:13;9.40;;;6.20;;
4597;SDS011;2311;48.646;8.906;2022-07-29T09:48:23;18.35;;;6.28;;
4597;SDS011;2311;48.646;8.906;2022-07-29T09:58:35;9.50;;;5.85;;
4597;SDS011;2311;48.646;8.906;2022-07-29T10:03:52;10.30;;;5.95;;
4597;SDS011;2311;48.646;8.906;2022-07-29T10:08:52;7.30;;;5.75;;
4597;SDS011;2311;48.646;8.906;2022-07-29T10:13:53;9.52;;;6.40;;
4597;SDS011;2311;48.646;8.906;2022-07-29T10:18:53;8.50;;;5.53;;
4597;SDS011;2311;48.646;8.906;2022-07-29T10:23:54;9.80;;;5.63;;
4597;SDS011;2311;48.646;8.906;2022-07-29T10:28:55;5.97;;;3.70;;
4597;SDS011;2311;48.646;8.906;2022-07-29T10:34:01;7.80;;;4.33;;
4597;SDS011;2311;48.646;8.906;2022-07-29T10:45:26;17.60;;;8.27;;
4597;SDS011;2311;48.646;8.906;2022-07-29T10:50:27;14.80;;;7.47;;
4597;SDS011;2311;48.646;8.906;2022-07-29T10:55:37;9.30;;;7.00;;
4597;SDS011;2311;48.646;8.906;2022-07-29T11:00:42;12.43;;;7.60;;
4597;SDS011;2311;48.646;8.906;2022-07-29T11:05:52;14.40;;;7.87;;
4597;SDS011;2311;48.646;8.906;2022-07-29T11:11:30;14.73;;;9.60;;
4597;SDS011;2311;48.646;8.906;2022-07-29T11:16:20;12.30;;;8.10;;
4597;SDS011;2311;48.646;8.906;2022-07-29T11:21:34;15.00;;;8.73;;
4597;SDS011;2311;48.646;8.906;2022-07-29T11:26:35;13.63;;;8.20;;
4597;SDS011;2311;48.646;8.906;2022-07-29T11:31:40;12.23;;;7.87;;
4597;SDS011;2311;48.646;8.906;2022-07-29T11:47:19;7.10;;;5.23;;
4597;SDS011;2311;48.646;8.906;2022-07-29T11:52:20;6.83;;;5.00;;
4597;SDS011;2311;48.646;8.906;2022-07-29T11:57:21;7.50;;;5.07;;
4597;SDS011;2311;48.646;8.906;2022-07-29T12:02:21;8.87;;;6.10;;
4597;SDS011;2311;48.646;8.906;2022-07-29T12:07:28;8.90;;;5.20;;
4597;SDS011;2311;48.646;8.906;2022-07-29T12:12:28;7.03;;;4.93;;
4597;SDS011;2311;48.646;8.906;2022-07-29T12:17:30;6.47;;;4.77;;
4597;SDS011;2311;48.646;8.906;2022-07-29T12:22:32;8.50;;;5.20;;
4597;SDS011;2311;48.646;8.906;2022-07-29T12:27:34;6.80;;;5.00;;
4597;SDS011;2311;48.646;8.906;2022-07-29T12:32:35;6.30;;;4.43;;
4597;SDS011;2311;48.646;8.906;2022-07-29T12:37:37;9.50;;;5.60;;
4597;SDS011;2311;48.646;8.906;2022-07-29T12:42:38;9.27;;;5.67;;
4597;SDS011;2311;48.646;8.906;2022-07-29T12:47:52;9.83;;;5.80;;
4597;SDS011;2311;48.646;8.906;2022-07-29T12:52:53;8.20;;;5.00;;
4597;SDS011;2311;48.646;8.906;2022-07-29T12:57:53;8.40;;;5.77;;
4597;SDS011;2311;48.646;8.906;2022-07-29T13:02:55;11.40;;;6.80;;
4597;SDS011;2311;48.646;8.906;2022-07-29T13:08:01;9.60;;;5.80;;
4597;SDS011;2311;48.646;8.906;2022-07-29T13:13:11;14.63;;;7.00;;
4597;SDS011;2311;48.646;8.906;2022-07-29T13:23:32;11.43;;;7.30;;
4597;SDS011;2311;48.646;8.906;2022-07-29T13:28:33;8.00;;;6.80;;
4597;SDS011;2311;48.646;8.906;2022-07-29T13:33:34;11.83;;;8.50;;
4597;SDS011;2311;48.646;8.906;2022-07-29T13:38:34;13.70;;;7.07;;
4597;SDS011;2311;48.646;8.906;2022-07-29T13:43:34;13.80;;;7.30;;
4597;SDS011;2311;48.646;8.906;2022-07-29T13:48:35;13.73;;;8.13;;
4597;SDS011;2311;48.646;8.906;2022-07-29T13:53:35;9.47;;;7.13;;
4597;SDS011;2311;48.646;8.906;2022-07-29T13:58:36;10.23;;;7.70;;
4597;SDS011;2311;48.646;8.906;2022-07-29T14:03:36;10.23;;;8.00;;
4597;SDS011;2311;48.646;8.906;2022-07-29T14:08:41;11.20;;;8.33;;
4597;SDS011;2311;48.646;8.906;2022-07-29T14:13:41;13.30;;;8.53;;
4597;SDS011;2311;48.646;8.906;2022-07-29T14:18:42;13.30;;;8.73;;
4597;SDS011;2311;48.646;8.906;2022-07-29T14:23:42;14.30;;;9.60;;
4597;SDS011;2311;48.646;8.906;2022-07-29T14:28:42;12.63;;;8.60;;
4597;SDS011;2311;48.646;8.906;2022-07-29T14:33:43;11.47;;;8.80;;
4597;SDS011;2311;48.646;8.906;2022-07-29T14:38:44;12.07;;;8.90;;
4597;SDS011;2311;48.646;8.906;2022-07-29T14:43:44;12.07;;;8.50;;
4597;SDS011;2311;48.646;8.906;2022-07-29T14:48:45;10.70;;;8.10;;
4597;SDS011;2311;48.646;8.906;2022-07-29T14:53:46;12.50;;;8.43;;
4597;SDS011;2311;48.646;8.906;2022-07-29T14:58:47;15.93;;;9.57;;
4597;SDS011;2311;48.646;8.906;2022-07-29T15:03:47;13.53;;;9.33;;
4597;SDS011;2311;48.646;8.906;2022-07-29T15:08:48;15.77;;;9.03;;
4597;SDS011;2311;48.646;8.906;2022-07-29T15:13:48;11.37;;;8.67;;
4597;SDS011;2311;48.646;8.906;2022-07-29T15:18:48;15.17;;;9.50;;
4597;SDS011;2311;48.646;8.906;2022-07-29T15:23:49;10.70;;;7.70;;
4597;SDS011;2311;48.646;8.906;2022-07-29T15:28:49;14.00;;;8.73;;
4597;SDS011;2311;48.646;8.906;2022-07-29T15:33:50;13.10;;;8.70;;
4597;SDS011;2311;48.646;8.906;2022-07-29T15:38:53;9.40;;;7.27;;
4597;SDS011;2311;48.646;8.906;2022-07-29T15:43:54;13.57;;;8.20;;
4597;SDS011;2311;48.646;8.906;2022-07-29T15:48:54;11.73;;;8.23;;
4597;SDS011;2311;48.646;8.906;2022-07-29T15:53:55;10.30;;;7.33;;
4597;SDS011;2311;48.646;8.906;2022-07-29T15:58:55;17.80;;;8.90;;
4597;SDS011;2311;48.646;8.906;2022-07-29T16:03:56;12.43;;;7.53;;
4597;SDS011;2311;48.646;8.906;2022-07-29T16:08:57;10.10;;;7.73;;
4597;SDS011;2311;48.646;8.906;2022-07-29T16:13:59;9.93;;;7.70;;
4597;SDS011;2311;48.646;8.906;2022-07-29T16:18:59;12.07;;;7.30;;
4597;SDS011;2311;48.646;8.906;2022-07-29T16:24:00;12.10;;;7.40;;
4597;SDS011;2311;48.646;8.906;2022-07-29T16:29:01;8.73;;;7.00;;
4597;SDS011;2311;48.646;8.906;2022-07-29T16:34:01;15.80;;;10.60;;
4597;SDS011;2311;48.646;8.906;2022-07-29T16:39:01;11.00;;;7.20;;
4597;SDS011;2311;48.646;8.906;2022-07-29T16:44:04;10.17;;;7.33;;
4597;SDS011;2311;48.646;8.906;2022-07-29T16:49:04;11.47;;;7.07;;
4597;SDS011;2311;48.646;8.906;2022-07-29T16:54:04;8.77;;;5.47;;
4597;SDS011;2311;48.646;8.906;2022-07-29T16:59:05;8.60;;;4.37;;
4597;SDS011;2311;48.646;8.906;2022-07-29T17:04:05;7.13;;;4.70;;
4597;SDS011;2311;48.646;8.906;2022-07-29T17:09:07;12.33;;;7.53;;
4597;SDS011;2311;48.646;8.906;2022-07-29T17:14:08;7.60;;;3.90;;
4597;SDS011;2311;48.646;8.906;2022-07-29T17:19:09;4.73;;;3.70;;
4597;SDS011;2311;48.646;8.906;2022-07-29T17:24:09;6.63;;;4.35;;
4597;SDS011;2311;48.646;8.906;2022-07-29T17:29:10;5.30;;;3.63;;
4597;SDS011;2311;48.646;8.906;2022-07-29T17:34:10;8.20;;;4.50;;
4597;SDS011;2311;48.646;8.906;2022-07-29T17:39:11;5.72;;;3.88;;
4597;SDS011;2311;48.646;8.906;2022-07-29T17:44:12;7.50;;;3.70;;
4597;SDS011;2311;48.646;8.906;2022-07-29T17:49:12;5.97;;;3.45;;
4597;SDS011;2311;48.646;8.906;2022-07-29T17:54:13;5.97;;;3.80;;
4597;SDS011;2311;48.646;8.906;2022-07-29T17:59:13;5.63;;;3.30;;
4597;SDS011;2311;48.646;8.906;2022-07-29T18:04:13;5.60;;;3.15;;
4597;SDS011;2311;48.646;8.906;2022-07-29T18:09:19;7.20;;;3.45;;
4597;SDS011;2311;48.646;8.906;2022-07-29T18:14:19;5.63;;;3.83;;
4597;SDS011;2311;48.646;8.906;2022-07-29T18:19:19;4.13;;;3.05;;
4597;SDS011;2311;48.646;8.906;2022-07-29T18:24:20;6.78;;;3.42;;
4597;SDS011;2311;48.646;8.906;2022-07-29T18:29:24;4.97;;;3.08;;
4597;SDS011;2311;48.646;8.906;2022-07-29T18:34:24;6.10;;;3.75;;
4597;SDS011;2311;48.646;8.906;2022-07-29T18:39:25;5.13;;;3.55;;
4597;SDS011;2311;48.646;8.906;2022-07-29T18:44:25;5.43;;;3.90;;
4597;SDS011;2311;48.646;8.906;2022-07-29T18:49:26;5.60;;;3.20;;
4597;SDS011;2311;48.646;8.906;2022-07-29T18:54:26;6.27;;;3.87;;
4597;SDS011;2311;48.646;8.906;2022-07-29T18:59:27;7.03;;;4.00;;
4597;SDS011;2311;48.646;8.906;2022-07-29T19:04:29;8.70;;;5.10;;
4597;SDS011;2311;48.646;8.906;2022-07-29T19:09:29;8.80;;;4.53;;
4597;SDS011;2311;48.646;8.906;2022-07-29T19:14:30;7.87;;;5.00;;
4597;SDS011;2311;48.646;8.906;2022-07-29T19:19:30;8.80;;;4.60;;
4597;SDS011;2311;48.646;8.906;2022-07-29T19:24:31;8.83;;;5.87;;
4597;SDS011;2311;48.646;8.906;2022-07-29T19:29:31;10.40;;;6.53;;
4597;SDS011;2311;48.646;8.906;2022-07-29T19:34:33;12.33;;;6.20;;
4597;SDS011;2311;48.646;8.906;2022-07-29T19:39:34;8.70;;;5.53;;
4597;SDS011;2311;48.646;8.906;2022-07-29T19:44:35;7.33;;;5.03;;
4597;SDS011;2311;48.646;8.906;2022-07-29T19:49:35;8.07;;;5.93;;
4597;SDS011;2311;48.646;8.906;2022-07-29T19:54:38;7.30;;;4.53;;
4597;SDS011;2311;48.646;8.906;2022-07-29T19:59:38;9.97;;;4.73;;
4597;SDS011;2311;48.646;8.906;2022-07-29T20:04:39;7.47;;;4.90;;
4597;SDS011;2311;48.646;8.906;2022-07-29T20:09:40;6.50;;;4.30;;
4597;SDS011;2311;48.646;8.906;2022-07-29T20:14:41;10.07;;;5.40;;
4597;SDS011;2311;48.646;8.906;2022-07-29T20:19:42;8.67;;;5.23;;
4597;SDS011;2311;48.646;8.906;2022-07-29T20:24:43;7.90;;;4.40;;
4597;SDS011;2311;48.646;8.906;2022-07-29T20:29:43;6.20;;;4.60;;
4597;SDS011;2311;48.646;8.906;2022-07-29T20:34:44;8.30;;;5.00;;
4597;SDS011;2311;48.646;8.906;2022-07-29T20:39:44;9.00;;;5.27;;
4597;SDS011;2311;48.646;8.906;2022-07-29T20:44:48;10.00;;;5.13;;
4597;SDS011;2311;48.646;8.906;2022-07-29T20:49:50;6.73;;;4.27;;
4597;SDS011;2311;48.646;8.906;2022-07-29T20:54:54;9.40;;;5.23;;
4597;SDS011;2311;48.646;8.906;2022-07-29T20:59:54;8.57;;;5.17;;
4597;SDS011;2311;48.646;8.906;2022-07-29T21:04:55;11.17;;;5.00;;
4597;SDS011;2311;48.646;8.906;2022-07-29T21:09:55;9.73;;;4.67;;
4597;SDS011;2311;48.646;8.906;2022-07-29T21:14:56;6.43;;;4.60;;
4597;SDS011;2311;48.646;8.906;2022-07-29T21:19:57;5.60;;;4.40;;
4597;SDS011;2311;48.646;8.906;2022-07-29T21:24:57;5.67;;;4.00;;
4597;SDS011;2311;48.646;8.906;2022-07-29T21:29:57;7.77;;;4.10;;
4597;SDS011;2311;48.646;8.906;2022-07-29T21:34:58;7.47;;;4.47;;
4597;SDS011;2311;48.646;8.906;2022-07-29T21:39:59;6.83;;;4.30;;
4597;SDS011;2311;48.646;8.906;2022-07-29T21:44:59;6.50;;;3.97;;
4597;SDS011;2311;48.646;8.906;2022-07-29T21:49:59;5.77;;;3.73;;
4597;SDS011;2311;48.646;8.906;2022-07-29T21:55:00;5.77;;;3.90;;
4597;SDS011;2311;48.646;8.906;2022-07-29T22:00:00;8.40;;;4.50;;
4597;SDS011;2311;48.646;8.906;2022-07-29T22:05:01;5.40;;;3.93;;
4597;SDS011;2311;48.646;8.906;2022-07-29T22:10:02;6.83;;;4.23;;
4597;SDS011;2311;48.646;8.906;2022-07-29T22:15:02;7.90;;;4.13;;
4597;SDS011;2311;48.646;8.906;2022-07-29T22:20:06;6.60;;;4.30;;
4597;SDS011;2311;48.646;8.906;2022-07-29T22:25:07;6.70;;;4.80;;
4597;SDS011;2311;48.646;8.906;2022-07-29T22:30:08;8.13;;;4.47;;
4597;SDS011;2311;48.646;8.906;2022-07-29T22:35:09;7.33;;;4.77;;
4597;SDS011;2311;48.646;8.906;2022-07-29T22:40:09;6.30;;;4.20;;
4597;SDS011;2311;48.646;8.906;2022-07-29T22:45:10;7.03;;;4.37;;
4597;SDS011;2311;48.646;8.906;2022-07-29T22:50:11;8.87;;;4.53;;
4597;SDS011;2311;48.646;8.906;2022-07-29T22:55:12;8.23;;;4.60;;
4597;SDS011;2311;48.646;8.906;2022-07-29T23:00:13;6.27;;;4.37;;
4597;SDS011;2311;48.646;8.906;2022-07-29T23:05:14;6.30;;;4.37;;
4597;SDS011;2311;48.646;8.906;2022-07-29T23:10:14;6.20;;;4.63;;
4597;SDS011;2311;48.646;8.906;2022-07-29T23:15:15;10.30;;;5.00;;
4597;SDS011;2311;48.646;8.906;2022-07-29T23:20:15;7.73;;;4.80;;
4597;SDS011;2311;48.646;8.906;2022-07-29T23:25:16;6.80;;;4.80;;
4597;SDS011;2311;48.646;8.906;2022-07-29T23:30:16;8.60;;;4.70;;
4597;SDS011;2311;48.646;8.906;2022-07-29T23:35:17;5.63;;;4.23;;
4597;SDS011;2311;48.646;8.906;2022-07-29T23:40:17;6.97;;;4.40;;
4597;SDS011;2311;48.646;8.906;2022-07-29T23:45:18;5.93;;;4.27;;
4597;SDS011;2311;48.646;8.906;2022-07-29T23:50:18;7.70;;;4.70;;
4597;SDS011;2311;48.646;8.906;2022-07-29T23:55:19;7.10;;;4.50;;
